sensor_id;sensor_type;location;lat;lon;timestamp;P1;durP1;ratioP1;P2;durP2;ratioP2
4806;SDS011;2417;52.482;13.432;2023-09-19T00:01:08;9.40;;;3.00;;
4806;SDS011;2417;52.482;13.432;2023-09-19T00:03:40;8.80;;;3.10;;
4806;SDS011;2417;52.482;13.432;2023-09-19T00:06:11;7.47;;;2.67;;
4806;SDS011;2417;52.482;13.432;2023-09-19T00:08:42;7.13;;;3.03;;
4806;SDS011;2417;52.482;13.432;2023-09-19T00:11:11;10.67;;;2.90;;
4806;SDS011;2417;52.482;13.432;2023-09-19T00:13:41;7.07;;;3.10;;
4806;SDS011;2417;52.482;13.432;2023-09-19T00:16:10;5.40;;;3.40;;
4806;SDS011;2417;52.482;13.432;2023-09-19T00:18:39;8.00;;;3.60;;
4806;SDS011;2417;52.482;13.432;2023-09-19T00:21:07;10.23;;;3.70;;
4806;SDS011;2417;52.482;13.432;2023-09-19T00:23:38;7.90;;;3.00;;
4806;SDS011;2417;52.482;13.432;2023-09-19T00:26:07;10.30;;;3.10;;
4806;SDS011;2417;52.482;13.432;2023-09-19T00:28:36;7.40;;;3.33;;
4806;SDS011;2417;52.482;13.432;2023-09-19T00:31:04;5.50;;;3.10;;
4806;SDS011;2417;52.482;13.432;2023-09-19T00:33:33;6.13;;;3.10;;
4806;SDS011;2417;52.482;13.432;2023-09-19T00:36:03;6.60;;;3.20;;
4806;SDS011;2417;52.482;13.432;2023-09-19T00:38:32;6.47;;;3.20;;
4806;SDS011;2417;52.482;13.432;2023-09-19T00:41:01;7.90;;;2.90;;
4806;SDS011;2417;52.482;13.432;2023-09-19T00:43:30;5.70;;;2.80;;
4806;SDS011;2417;52.482;13.432;2023-09-19T00:46:01;10.23;;;2.93;;
4806;SDS011;2417;52.482;13.432;2023-09-19T00:48:31;5.07;;;2.87;;
4806;SDS011;2417;52.482;13.432;2023-09-19T00:51:02;15.03;;;3.77;;
4806;SDS011;2417;52.482;13.432;2023-09-19T00:53:31;9.90;;;3.70;;
4806;SDS011;2417;52.482;13.432;2023-09-19T00:56:02;6.80;;;2.97;;
4806;SDS011;2417;52.482;13.432;2023-09-19T00:58:31;6.77;;;3.40;;
4806;SDS011;2417;52.482;13.432;2023-09-19T01:01:01;6.77;;;3.50;;
4806;SDS011;2417;52.482;13.432;2023-09-19T01:03:29;5.17;;;2.60;;
4806;SDS011;2417;52.482;13.432;2023-09-19T01:05:58;12.03;;;3.20;;
4806;SDS011;2417;52.482;13.432;2023-09-19T01:08:27;8.37;;;3.10;;
4806;SDS011;2417;52.482;13.432;2023-09-19T01:10:59;8.60;;;3.17;;
4806;SDS011;2417;52.482;13.432;2023-09-19T01:13:40;5.80;;;3.00;;
4806;SDS011;2417;52.482;13.432;2023-09-19T01:16:13;7.10;;;3.10;;
4806;SDS011;2417;52.482;13.432;2023-09-19T01:18:47;6.30;;;3.30;;
4806;SDS011;2417;52.482;13.432;2023-09-19T01:21:19;6.50;;;3.37;;
4806;SDS011;2417;52.482;13.432;2023-09-19T01:23:57;7.63;;;3.33;;
4806;SDS011;2417;52.482;13.432;2023-09-19T01:26:35;7.37;;;3.30;;
4806;SDS011;2417;52.482;13.432;2023-09-19T01:29:23;6.27;;;3.53;;
4806;SDS011;2417;52.482;13.432;2023-09-19T01:32:01;7.47;;;3.73;;
4806;SDS011;2417;52.482;13.432;2023-09-19T01:34:42;11.20;;;3.37;;
4806;SDS011;2417;52.482;13.432;2023-09-19T01:37:12;15.23;;;3.40;;
4806;SDS011;2417;52.482;13.432;2023-09-19T01:39:40;6.13;;;3.30;;
4806;SDS011;2417;52.482;13.432;2023-09-19T01:42:10;9.80;;;3.20;;
4806;SDS011;2417;52.482;13.432;2023-09-19T01:44:44;4.87;;;2.90;;
4806;SDS011;2417;52.482;13.432;2023-09-19T01:47:19;7.17;;;3.23;;
4806;SDS011;2417;52.482;13.432;2023-09-19T01:49:50;9.90;;;3.40;;
4806;SDS011;2417;52.482;13.432;2023-09-19T01:52:24;7.17;;;3.00;;
4806;SDS011;2417;52.482;13.432;2023-09-19T01:55:06;7.73;;;2.90;;
4806;SDS011;2417;52.482;13.432;2023-09-19T01:57:37;10.00;;;2.90;;
4806;SDS011;2417;52.482;13.432;2023-09-19T02:00:10;5.50;;;2.80;;
4806;SDS011;2417;52.482;13.432;2023-09-19T02:02:42;4.77;;;2.90;;
4806;SDS011;2417;52.482;13.432;2023-09-19T02:05:11;7.07;;;3.20;;
4806;SDS011;2417;52.482;13.432;2023-09-19T02:07:39;9.77;;;3.50;;
4806;SDS011;2417;52.482;13.432;2023-09-19T02:10:07;7.27;;;2.90;;
4806;SDS011;2417;52.482;13.432;2023-09-19T02:12:37;10.47;;;2.73;;
4806;SDS011;2417;52.482;13.432;2023-09-19T02:15:05;6.07;;;3.30;;
4806;SDS011;2417;52.482;13.432;2023-09-19T02:17:34;9.03;;;3.10;;
4806;SDS011;2417;52.482;13.432;2023-09-19T02:20:06;8.87;;;3.10;;
4806;SDS011;2417;52.482;13.432;2023-09-19T02:22:36;7.83;;;3.60;;
4806;SDS011;2417;52.482;13.432;2023-09-19T02:25:06;5.33;;;3.30;;
4806;SDS011;2417;52.482;13.432;2023-09-19T02:27:35;7.20;;;3.40;;
4806;SDS011;2417;52.482;13.432;2023-09-19T02:30:04;7.67;;;3.20;;
4806;SDS011;2417;52.482;13.432;2023-09-19T02:32:33;5.93;;;3.30;;
4806;SDS011;2417;52.482;13.432;2023-09-19T02:35:08;9.83;;;4.20;;
4806;SDS011;2417;52.482;13.432;2023-09-19T02:37:38;6.13;;;2.60;;
4806;SDS011;2417;52.482;13.432;2023-09-19T02:40:06;5.40;;;3.03;;
4806;SDS011;2417;52.482;13.432;2023-09-19T02:42:45;4.67;;;2.77;;
4806;SDS011;2417;52.482;13.432;2023-09-19T02:45:16;8.83;;;3.23;;
4806;SDS011;2417;52.482;13.432;2023-09-19T02:47:45;7.27;;;3.40;;
4806;SDS011;2417;52.482;13.432;2023-09-19T02:50:17;6.40;;;3.30;;
4806;SDS011;2417;52.482;13.432;2023-09-19T02:52:45;8.13;;;3.37;;
4806;SDS011;2417;52.482;13.432;2023-09-19T02:55:15;5.67;;;2.73;;
4806;SDS011;2417;52.482;13.432;2023-09-19T02:57:47;10.67;;;3.50;;
4806;SDS011;2417;52.482;13.432;2023-09-19T03:00:16;3.90;;;3.07;;
4806;SDS011;2417;52.482;13.432;2023-09-19T03:02:48;8.23;;;3.60;;
4806;SDS011;2417;52.482;13.432;2023-09-19T03:05:17;18.70;;;3.50;;
4806;SDS011;2417;52.482;13.432;2023-09-19T03:07:46;8.83;;;2.90;;
4806;SDS011;2417;52.482;13.432;2023-09-19T03:10:17;11.00;;;2.83;;
4806;SDS011;2417;52.482;13.432;2023-09-19T03:12:46;4.50;;;2.90;;
4806;SDS011;2417;52.482;13.432;2023-09-19T03:15:14;5.33;;;2.80;;
4806;SDS011;2417;52.482;13.432;2023-09-19T03:17:45;6.37;;;3.20;;
4806;SDS011;2417;52.482;13.432;2023-09-19T03:20:19;7.03;;;2.93;;
4806;SDS011;2417;52.482;13.432;2023-09-19T03:22:49;6.80;;;2.80;;
4806;SDS011;2417;52.482;13.432;2023-09-19T03:25:17;8.63;;;2.80;;
4806;SDS011;2417;52.482;13.432;2023-09-19T03:27:48;3.10;;;2.33;;
4806;SDS011;2417;52.482;13.432;2023-09-19T03:30:18;8.20;;;2.73;;
4806;SDS011;2417;52.482;13.432;2023-09-19T03:32:47;4.60;;;2.67;;
4806;SDS011;2417;52.482;13.432;2023-09-19T03:35:18;6.90;;;2.53;;
4806;SDS011;2417;52.482;13.432;2023-09-19T03:37:48;6.80;;;2.63;;
4806;SDS011;2417;52.482;13.432;2023-09-19T03:40:16;8.57;;;2.60;;
4806;SDS011;2417;52.482;13.432;2023-09-19T03:42:47;5.87;;;3.20;;
4806;SDS011;2417;52.482;13.432;2023-09-19T03:45:15;3.20;;;2.40;;
4806;SDS011;2417;52.482;13.432;2023-09-19T03:47:49;6.73;;;2.80;;
4806;SDS011;2417;52.482;13.432;2023-09-19T03:50:20;4.90;;;2.87;;
4806;SDS011;2417;52.482;13.432;2023-09-19T03:52:50;4.50;;;2.40;;
4806;SDS011;2417;52.482;13.432;2023-09-19T03:55:18;6.00;;;2.50;;
4806;SDS011;2417;52.482;13.432;2023-09-19T03:57:47;6.20;;;2.67;;
4806;SDS011;2417;52.482;13.432;2023-09-19T04:00:15;8.37;;;2.77;;
4806;SDS011;2417;52.482;13.432;2023-09-19T04:02:51;4.73;;;2.60;;
4806;SDS011;2417;52.482;13.432;2023-09-19T04:05:19;4.43;;;2.50;;
4806;SDS011;2417;52.482;13.432;2023-09-19T04:07:47;8.40;;;2.40;;
4806;SDS011;2417;52.482;13.432;2023-09-19T04:10:16;9.13;;;2.73;;
4806;SDS011;2417;52.482;13.432;2023-09-19T04:12:51;7.40;;;2.80;;
4806;SDS011;2417;52.482;13.432;2023-09-19T04:15:19;4.07;;;2.10;;
4806;SDS011;2417;52.482;13.432;2023-09-19T04:17:50;6.87;;;2.33;;
4806;SDS011;2417;52.482;13.432;2023-09-19T04:20:18;3.83;;;2.10;;
4806;SDS011;2417;52.482;13.432;2023-09-19T04:22:46;7.97;;;2.33;;
4806;SDS011;2417;52.482;13.432;2023-09-19T04:25:16;4.77;;;2.10;;
4806;SDS011;2417;52.482;13.432;2023-09-19T04:27:44;4.10;;;1.87;;
4806;SDS011;2417;52.482;13.432;2023-09-19T04:30:13;4.10;;;1.83;;
4806;SDS011;2417;52.482;13.432;2023-09-19T04:32:41;7.87;;;2.50;;
4806;SDS011;2417;52.482;13.432;2023-09-19T04:35:10;3.93;;;2.17;;
4806;SDS011;2417;52.482;13.432;2023-09-19T04:37:38;3.73;;;1.87;;
4806;SDS011;2417;52.482;13.432;2023-09-19T04:40:07;3.33;;;2.00;;
4806;SDS011;2417;52.482;13.432;2023-09-19T04:42:41;5.13;;;2.00;;
4806;SDS011;2417;52.482;13.432;2023-09-19T04:45:09;6.00;;;2.33;;
4806;SDS011;2417;52.482;13.432;2023-09-19T04:47:38;4.67;;;2.07;;
4806;SDS011;2417;52.482;13.432;2023-09-19T04:50:07;7.70;;;2.57;;
4806;SDS011;2417;52.482;13.432;2023-09-19T04:52:39;6.30;;;2.40;;
4806;SDS011;2417;52.482;13.432;2023-09-19T04:55:08;3.73;;;2.20;;
4806;SDS011;2417;52.482;13.432;2023-09-19T04:57:37;2.77;;;1.90;;
4806;SDS011;2417;52.482;13.432;2023-09-19T05:00:07;3.40;;;1.90;;
4806;SDS011;2417;52.482;13.432;2023-09-19T05:02:39;6.20;;;2.67;;
4806;SDS011;2417;52.482;13.432;2023-09-19T05:05:07;4.87;;;2.13;;
4806;SDS011;2417;52.482;13.432;2023-09-19T05:07:38;4.10;;;2.10;;
4806;SDS011;2417;52.482;13.432;2023-09-19T05:10:07;3.77;;;1.87;;
4806;SDS011;2417;52.482;13.432;2023-09-19T05:12:36;5.77;;;1.93;;
4806;SDS011;2417;52.482;13.432;2023-09-19T05:15:05;4.30;;;2.30;;
4806;SDS011;2417;52.482;13.432;2023-09-19T05:17:35;3.70;;;1.77;;
4806;SDS011;2417;52.482;13.432;2023-09-19T05:20:04;3.63;;;1.53;;
4806;SDS011;2417;52.482;13.432;2023-09-19T05:22:43;3.70;;;1.90;;
4806;SDS011;2417;52.482;13.432;2023-09-19T05:25:13;6.63;;;2.03;;
4806;SDS011;2417;52.482;13.432;2023-09-19T05:27:42;4.20;;;2.00;;
4806;SDS011;2417;52.482;13.432;2023-09-19T05:30:11;3.70;;;2.33;;
4806;SDS011;2417;52.482;13.432;2023-09-19T05:32:42;19.07;;;2.80;;
4806;SDS011;2417;52.482;13.432;2023-09-19T05:35:11;4.77;;;2.43;;
4806;SDS011;2417;52.482;13.432;2023-09-19T05:37:39;4.20;;;2.60;;
4806;SDS011;2417;52.482;13.432;2023-09-19T05:40:08;9.73;;;3.07;;
4806;SDS011;2417;52.482;13.432;2023-09-19T05:42:37;8.33;;;2.73;;
4806;SDS011;2417;52.482;13.432;2023-09-19T05:45:06;8.30;;;3.20;;
4806;SDS011;2417;52.482;13.432;2023-09-19T05:47:34;7.20;;;2.70;;
4806;SDS011;2417;52.482;13.432;2023-09-19T05:50:04;6.43;;;2.70;;
4806;SDS011;2417;52.482;13.432;2023-09-19T05:52:34;5.87;;;2.90;;
4806;SDS011;2417;52.482;13.432;2023-09-19T05:55:04;8.80;;;2.73;;
4806;SDS011;2417;52.482;13.432;2023-09-19T05:57:34;10.13;;;3.07;;
4806;SDS011;2417;52.482;13.432;2023-09-19T06:00:02;4.40;;;2.37;;
4806;SDS011;2417;52.482;13.432;2023-09-19T06:02:37;7.30;;;2.53;;
4806;SDS011;2417;52.482;13.432;2023-09-19T06:05:08;5.30;;;2.60;;
4806;SDS011;2417;52.482;13.432;2023-09-19T06:07:38;6.90;;;2.73;;
4806;SDS011;2417;52.482;13.432;2023-09-19T06:10:07;4.90;;;2.40;;
4806;SDS011;2417;52.482;13.432;2023-09-19T06:12:37;4.83;;;2.70;;
4806;SDS011;2417;52.482;13.432;2023-09-19T06:15:06;8.50;;;2.93;;
4806;SDS011;2417;52.482;13.432;2023-09-19T06:17:35;7.43;;;2.97;;
4806;SDS011;2417;52.482;13.432;2023-09-19T06:20:05;6.70;;;2.67;;
4806;SDS011;2417;52.482;13.432;2023-09-19T06:22:40;7.03;;;2.80;;
4806;SDS011;2417;52.482;13.432;2023-09-19T06:25:09;3.77;;;2.53;;
4806;SDS011;2417;52.482;13.432;2023-09-19T06:27:38;6.73;;;2.60;;
4806;SDS011;2417;52.482;13.432;2023-09-19T06:30:09;5.83;;;2.47;;
4806;SDS011;2417;52.482;13.432;2023-09-19T06:32:38;6.53;;;2.60;;
4806;SDS011;2417;52.482;13.432;2023-09-19T06:35:06;5.30;;;2.80;;
4806;SDS011;2417;52.482;13.432;2023-09-19T06:37:35;7.93;;;3.03;;
4806;SDS011;2417;52.482;13.432;2023-09-19T06:40:08;9.63;;;2.80;;
4806;SDS011;2417;52.482;13.432;2023-09-19T06:42:40;8.87;;;3.17;;
4806;SDS011;2417;52.482;13.432;2023-09-19T06:45:09;6.30;;;2.80;;
4806;SDS011;2417;52.482;13.432;2023-09-19T06:47:40;8.63;;;2.87;;
4806;SDS011;2417;52.482;13.432;2023-09-19T06:50:08;7.43;;;2.70;;
4806;SDS011;2417;52.482;13.432;2023-09-19T06:52:40;10.03;;;3.00;;
4806;SDS011;2417;52.482;13.432;2023-09-19T06:55:10;7.27;;;2.87;;
4806;SDS011;2417;52.482;13.432;2023-09-19T06:57:40;6.43;;;2.50;;
4806;SDS011;2417;52.482;13.432;2023-09-19T07:00:10;8.20;;;2.60;;
4806;SDS011;2417;52.482;13.432;2023-09-19T07:02:43;6.90;;;2.30;;
4806;SDS011;2417;52.482;13.432;2023-09-19T07:05:11;7.73;;;3.07;;
4806;SDS011;2417;52.482;13.432;2023-09-19T07:07:39;5.57;;;2.50;;
4806;SDS011;2417;52.482;13.432;2023-09-19T07:10:07;11.80;;;2.90;;
4806;SDS011;2417;52.482;13.432;2023-09-19T07:12:39;7.87;;;2.77;;
4806;SDS011;2417;52.482;13.432;2023-09-19T07:15:08;27.93;;;2.30;;
4806;SDS011;2417;52.482;13.432;2023-09-19T07:17:35;7.90;;;2.47;;
4806;SDS011;2417;52.482;13.432;2023-09-19T07:20:04;6.10;;;3.00;;
4806;SDS011;2417;52.482;13.432;2023-09-19T07:22:38;6.30;;;2.67;;
4806;SDS011;2417;52.482;13.432;2023-09-19T07:25:06;6.57;;;3.07;;
4806;SDS011;2417;52.482;13.432;2023-09-19T07:27:34;10.73;;;2.30;;
4806;SDS011;2417;52.482;13.432;2023-09-19T07:30:04;11.73;;;2.90;;
4806;SDS011;2417;52.482;13.432;2023-09-19T07:32:35;7.13;;;2.53;;
4806;SDS011;2417;52.482;13.432;2023-09-19T07:35:04;8.37;;;2.73;;
4806;SDS011;2417;52.482;13.432;2023-09-19T07:37:36;7.90;;;2.90;;
4806;SDS011;2417;52.482;13.432;2023-09-19T07:40:04;6.40;;;2.53;;
4806;SDS011;2417;52.482;13.432;2023-09-19T07:42:33;6.83;;;2.67;;
4806;SDS011;2417;52.482;13.432;2023-09-19T07:45:03;7.40;;;3.10;;
4806;SDS011;2417;52.482;13.432;2023-09-19T07:47:31;7.80;;;2.93;;
4806;SDS011;2417;52.482;13.432;2023-09-19T07:49:59;8.03;;;3.13;;
4806;SDS011;2417;52.482;13.432;2023-09-19T07:52:29;9.47;;;3.20;;
4806;SDS011;2417;52.482;13.432;2023-09-19T07:54:57;6.93;;;2.97;;
4806;SDS011;2417;52.482;13.432;2023-09-19T07:57:27;9.63;;;2.70;;
4806;SDS011;2417;52.482;13.432;2023-09-19T07:59:55;7.40;;;3.07;;
4806;SDS011;2417;52.482;13.432;2023-09-19T08:02:25;8.67;;;3.00;;
4806;SDS011;2417;52.482;13.432;2023-09-19T08:04:55;7.57;;;3.00;;
4806;SDS011;2417;52.482;13.432;2023-09-19T08:07:24;12.87;;;2.67;;
4806;SDS011;2417;52.482;13.432;2023-09-19T08:09:52;9.73;;;2.70;;
4806;SDS011;2417;52.482;13.432;2023-09-19T08:12:20;8.17;;;2.87;;
4806;SDS011;2417;52.482;13.432;2023-09-19T08:14:51;8.10;;;2.50;;
4806;SDS011;2417;52.482;13.432;2023-09-19T08:17:18;13.83;;;2.83;;
4806;SDS011;2417;52.482;13.432;2023-09-19T08:19:48;9.80;;;2.57;;
4806;SDS011;2417;52.482;13.432;2023-09-19T08:22:20;7.63;;;2.70;;
4806;SDS011;2417;52.482;13.432;2023-09-19T08:24:48;7.87;;;2.90;;
4806;SDS011;2417;52.482;13.432;2023-09-19T08:27:16;6.90;;;2.73;;
4806;SDS011;2417;52.482;13.432;2023-09-19T08:29:45;7.10;;;3.60;;
4806;SDS011;2417;52.482;13.432;2023-09-19T08:32:13;9.93;;;3.57;;
4806;SDS011;2417;52.482;13.432;2023-09-19T08:34:42;9.20;;;3.70;;
4806;SDS011;2417;52.482;13.432;2023-09-19T08:37:11;8.13;;;2.83;;
4806;SDS011;2417;52.482;13.432;2023-09-19T08:39:39;10.10;;;3.30;;
4806;SDS011;2417;52.482;13.432;2023-09-19T08:42:07;7.43;;;3.27;;
4806;SDS011;2417;52.482;13.432;2023-09-19T08:44:36;13.83;;;3.37;;
4806;SDS011;2417;52.482;13.432;2023-09-19T08:47:08;8.03;;;3.40;;
4806;SDS011;2417;52.482;13.432;2023-09-19T08:49:40;7.83;;;3.27;;
4806;SDS011;2417;52.482;13.432;2023-09-19T08:52:14;8.50;;;3.50;;
4806;SDS011;2417;52.482;13.432;2023-09-19T08:54:45;6.30;;;2.90;;
4806;SDS011;2417;52.482;13.432;2023-09-19T08:57:15;9.57;;;3.40;;
4806;SDS011;2417;52.482;13.432;2023-09-19T08:59:48;6.27;;;3.13;;
4806;SDS011;2417;52.482;13.432;2023-09-19T09:02:16;9.23;;;3.20;;
4806;SDS011;2417;52.482;13.432;2023-09-19T09:04:46;7.43;;;2.80;;
4806;SDS011;2417;52.482;13.432;2023-09-19T09:07:19;7.77;;;3.60;;
4806;SDS011;2417;52.482;13.432;2023-09-19T09:09:48;16.33;;;3.37;;
4806;SDS011;2417;52.482;13.432;2023-09-19T09:12:16;13.73;;;3.47;;
4806;SDS011;2417;52.482;13.432;2023-09-19T09:14:44;9.03;;;3.40;;
4806;SDS011;2417;52.482;13.432;2023-09-19T09:17:14;11.03;;;3.40;;
4806;SDS011;2417;52.482;13.432;2023-09-19T09:19:43;10.10;;;3.20;;
4806;SDS011;2417;52.482;13.432;2023-09-19T09:22:11;15.43;;;3.60;;
4806;SDS011;2417;52.482;13.432;2023-09-19T09:24:51;9.73;;;2.87;;
4806;SDS011;2417;52.482;13.432;2023-09-19T09:27:21;11.70;;;3.73;;
4806;SDS011;2417;52.482;13.432;2023-09-19T09:29:51;12.33;;;3.83;;
4806;SDS011;2417;52.482;13.432;2023-09-19T09:32:22;8.40;;;3.10;;
4806;SDS011;2417;52.482;13.432;2023-09-19T09:34:51;8.33;;;3.80;;
4806;SDS011;2417;52.482;13.432;2023-09-19T09:37:21;9.70;;;3.60;;
4806;SDS011;2417;52.482;13.432;2023-09-19T09:39:49;16.80;;;4.07;;
4806;SDS011;2417;52.482;13.432;2023-09-19T09:42:30;10.47;;;4.13;;
4806;SDS011;2417;52.482;13.432;2023-09-19T09:45:15;9.07;;;3.37;;
4806;SDS011;2417;52.482;13.432;2023-09-19T09:47:44;11.80;;;4.10;;
4806;SDS011;2417;52.482;13.432;2023-09-19T09:50:23;9.43;;;3.80;;
4806;SDS011;2417;52.482;13.432;2023-09-19T09:52:55;13.40;;;4.17;;
4806;SDS011;2417;52.482;13.432;2023-09-19T09:58:20;12.90;;;3.10;;
4806;SDS011;2417;52.482;13.432;2023-09-19T10:00:54;10.87;;;3.30;;
4806;SDS011;2417;52.482;13.432;2023-09-19T10:03:30;11.37;;;3.83;;
4806;SDS011;2417;52.482;13.432;2023-09-19T10:06:00;13.80;;;3.23;;
4806;SDS011;2417;52.482;13.432;2023-09-19T10:09:00;10.77;;;3.57;;
4806;SDS011;2417;52.482;13.432;2023-09-19T10:11:40;8.93;;;3.70;;
4806;SDS011;2417;52.482;13.432;2023-09-19T10:14:11;6.93;;;2.80;;
4806;SDS011;2417;52.482;13.432;2023-09-19T10:16:42;8.33;;;3.07;;
4806;SDS011;2417;52.482;13.432;2023-09-19T10:19:21;9.27;;;3.33;;
4806;SDS011;2417;52.482;13.432;2023-09-19T10:21:53;8.47;;;3.03;;
4806;SDS011;2417;52.482;13.432;2023-09-19T10:24:22;9.27;;;3.07;;
4806;SDS011;2417;52.482;13.432;2023-09-19T10:26:52;11.57;;;3.63;;
4806;SDS011;2417;52.482;13.432;2023-09-19T10:29:23;10.90;;;3.27;;
4806;SDS011;2417;52.482;13.432;2023-09-19T10:31:53;11.40;;;3.47;;
4806;SDS011;2417;52.482;13.432;2023-09-19T10:34:22;8.83;;;3.27;;
4806;SDS011;2417;52.482;13.432;2023-09-19T10:36:51;8.17;;;3.20;;
4806;SDS011;2417;52.482;13.432;2023-09-19T10:39:20;9.17;;;2.90;;
4806;SDS011;2417;52.482;13.432;2023-09-19T10:41:50;7.90;;;3.13;;
4806;SDS011;2417;52.482;13.432;2023-09-19T10:44:23;11.60;;;3.23;;
4806;SDS011;2417;52.482;13.432;2023-09-19T10:46:52;8.77;;;3.17;;
4806;SDS011;2417;52.482;13.432;2023-09-19T10:49:21;9.57;;;3.30;;
4806;SDS011;2417;52.482;13.432;2023-09-19T10:51:50;6.20;;;2.60;;
4806;SDS011;2417;52.482;13.432;2023-09-19T10:54:21;9.70;;;3.33;;
4806;SDS011;2417;52.482;13.432;2023-09-19T10:56:54;6.77;;;3.20;;
4806;SDS011;2417;52.482;13.432;2023-09-19T10:59:28;9.07;;;2.80;;
4806;SDS011;2417;52.482;13.432;2023-09-19T11:02:15;8.07;;;2.80;;
4806;SDS011;2417;52.482;13.432;2023-09-19T11:04:44;10.93;;;3.27;;
4806;SDS011;2417;52.482;13.432;2023-09-19T11:07:15;12.53;;;3.07;;
4806;SDS011;2417;52.482;13.432;2023-09-19T11:09:44;9.40;;;3.60;;
4806;SDS011;2417;52.482;13.432;2023-09-19T11:12:24;7.73;;;3.00;;
4806;SDS011;2417;52.482;13.432;2023-09-19T11:16:02;10.10;;;2.90;;
4806;SDS011;2417;52.482;13.432;2023-09-19T11:18:09;11.77;;;3.40;;
4806;SDS011;2417;52.482;13.432;2023-09-19T11:23:40;14.90;;;3.50;;
4806;SDS011;2417;52.482;13.432;2023-09-19T11:26:10;12.07;;;3.80;;
4806;SDS011;2417;52.482;13.432;2023-09-19T11:31:43;6.13;;;2.50;;
4806;SDS011;2417;52.482;13.432;2023-09-19T11:36:57;20.77;;;2.87;;
4806;SDS011;2417;52.482;13.432;2023-09-19T11:39:26;6.80;;;2.60;;
4806;SDS011;2417;52.482;13.432;2023-09-19T11:41:55;7.97;;;3.27;;
4806;SDS011;2417;52.482;13.432;2023-09-19T11:44:33;10.43;;;3.00;;
4806;SDS011;2417;52.482;13.432;2023-09-19T11:47:06;10.50;;;2.60;;
4806;SDS011;2417;52.482;13.432;2023-09-19T11:49:36;11.77;;;2.80;;
4806;SDS011;2417;52.482;13.432;2023-09-19T11:52:09;11.60;;;3.03;;
4806;SDS011;2417;52.482;13.432;2023-09-19T11:54:38;12.00;;;2.87;;
4806;SDS011;2417;52.482;13.432;2023-09-19T11:57:08;8.70;;;2.40;;
4806;SDS011;2417;52.482;13.432;2023-09-19T11:59:41;13.37;;;2.70;;
4806;SDS011;2417;52.482;13.432;2023-09-19T12:02:13;10.10;;;3.30;;
4806;SDS011;2417;52.482;13.432;2023-09-19T12:04:45;8.50;;;2.60;;
4806;SDS011;2417;52.482;13.432;2023-09-19T12:07:15;6.60;;;2.17;;
4806;SDS011;2417;52.482;13.432;2023-09-19T12:09:44;14.83;;;2.50;;
4806;SDS011;2417;52.482;13.432;2023-09-19T12:12:19;11.40;;;1.93;;
4806;SDS011;2417;52.482;13.432;2023-09-19T12:14:47;8.13;;;2.50;;
4806;SDS011;2417;52.482;13.432;2023-09-19T12:17:17;9.43;;;2.27;;
4806;SDS011;2417;52.482;13.432;2023-09-19T12:19:49;11.43;;;2.60;;
4806;SDS011;2417;52.482;13.432;2023-09-19T12:22:17;5.57;;;2.30;;
4806;SDS011;2417;52.482;13.432;2023-09-19T12:24:47;6.43;;;2.00;;
4806;SDS011;2417;52.482;13.432;2023-09-19T12:27:17;13.73;;;2.00;;
4806;SDS011;2417;52.482;13.432;2023-09-19T12:29:46;7.93;;;2.70;;
4806;SDS011;2417;52.482;13.432;2023-09-19T12:32:15;10.73;;;2.00;;
4806;SDS011;2417;52.482;13.432;2023-09-19T12:34:54;6.17;;;2.27;;
4806;SDS011;2417;52.482;13.432;2023-09-19T12:37:22;6.60;;;2.27;;
4806;SDS011;2417;52.482;13.432;2023-09-19T12:40:03;5.07;;;2.17;;
4806;SDS011;2417;52.482;13.432;2023-09-19T12:42:41;8.53;;;2.37;;
4806;SDS011;2417;52.482;13.432;2023-09-19T12:45:10;6.20;;;1.90;;
4806;SDS011;2417;52.482;13.432;2023-09-19T12:47:40;5.70;;;1.90;;
4806;SDS011;2417;52.482;13.432;2023-09-19T12:50:12;4.90;;;1.90;;
4806;SDS011;2417;52.482;13.432;2023-09-19T12:52:45;5.90;;;2.37;;
4806;SDS011;2417;52.482;13.432;2023-09-19T12:55:22;6.27;;;2.00;;
4806;SDS011;2417;52.482;13.432;2023-09-19T12:57:58;11.50;;;2.50;;
4806;SDS011;2417;52.482;13.432;2023-09-19T13:00:33;15.50;;;3.10;;
4806;SDS011;2417;52.482;13.432;2023-09-19T13:03:12;7.27;;;2.30;;
4806;SDS011;2417;52.482;13.432;2023-09-19T13:05:51;8.33;;;2.10;;
4806;SDS011;2417;52.482;13.432;2023-09-19T13:08:24;6.60;;;2.37;;
4806;SDS011;2417;52.482;13.432;2023-09-19T13:11:02;9.07;;;2.43;;
4806;SDS011;2417;52.482;13.432;2023-09-19T13:13:30;9.93;;;2.30;;
4806;SDS011;2417;52.482;13.432;2023-09-19T13:15:58;20.03;;;2.30;;
4806;SDS011;2417;52.482;13.432;2023-09-19T13:18:28;8.00;;;2.77;;
4806;SDS011;2417;52.482;13.432;2023-09-19T13:21:06;7.00;;;2.20;;
4806;SDS011;2417;52.482;13.432;2023-09-19T13:23:37;8.07;;;2.03;;
4806;SDS011;2417;52.482;13.432;2023-09-19T13:26:05;6.37;;;1.80;;
4806;SDS011;2417;52.482;13.432;2023-09-19T13:28:34;10.90;;;2.23;;
4806;SDS011;2417;52.482;13.432;2023-09-19T13:31:02;6.50;;;1.90;;
4806;SDS011;2417;52.482;13.432;2023-09-19T13:33:31;6.97;;;1.90;;
4806;SDS011;2417;52.482;13.432;2023-09-19T13:35:59;6.47;;;1.70;;
4806;SDS011;2417;52.482;13.432;2023-09-19T13:38:28;5.00;;;1.50;;
4806;SDS011;2417;52.482;13.432;2023-09-19T13:40:57;5.60;;;1.83;;
4806;SDS011;2417;52.482;13.432;2023-09-19T13:43:27;7.33;;;2.50;;
4806;SDS011;2417;52.482;13.432;2023-09-19T13:45:55;7.73;;;2.20;;
4806;SDS011;2417;52.482;13.432;2023-09-19T13:48:25;9.90;;;1.87;;
4806;SDS011;2417;52.482;13.432;2023-09-19T13:51:15;4.70;;;1.73;;
4806;SDS011;2417;52.482;13.432;2023-09-19T13:53:44;6.83;;;2.10;;
4806;SDS011;2417;52.482;13.432;2023-09-19T13:56:12;13.47;;;2.23;;
4806;SDS011;2417;52.482;13.432;2023-09-19T13:58:41;8.40;;;2.17;;
4806;SDS011;2417;52.482;13.432;2023-09-19T14:01:09;7.47;;;1.90;;
4806;SDS011;2417;52.482;13.432;2023-09-19T14:03:40;7.73;;;2.07;;
4806;SDS011;2417;52.482;13.432;2023-09-19T14:06:13;10.60;;;1.97;;
4806;SDS011;2417;52.482;13.432;2023-09-19T14:08:41;8.27;;;2.47;;
4806;SDS011;2417;52.482;13.432;2023-09-19T14:11:10;9.57;;;2.50;;
4806;SDS011;2417;52.482;13.432;2023-09-19T14:13:39;6.70;;;2.23;;
4806;SDS011;2417;52.482;13.432;2023-09-19T14:16:07;8.30;;;2.20;;
4806;SDS011;2417;52.482;13.432;2023-09-19T14:18:36;10.77;;;2.47;;
4806;SDS011;2417;52.482;13.432;2023-09-19T14:21:04;9.33;;;1.90;;
4806;SDS011;2417;52.482;13.432;2023-09-19T14:23:34;14.10;;;2.00;;
4806;SDS011;2417;52.482;13.432;2023-09-19T14:26:02;7.63;;;2.00;;
4806;SDS011;2417;52.482;13.432;2023-09-19T14:28:33;7.83;;;2.13;;
4806;SDS011;2417;52.482;13.432;2023-09-19T14:31:05;4.93;;;2.03;;
4806;SDS011;2417;52.482;13.432;2023-09-19T14:33:33;9.83;;;1.80;;
4806;SDS011;2417;52.482;13.432;2023-09-19T14:36:03;10.30;;;2.67;;
4806;SDS011;2417;52.482;13.432;2023-09-19T14:38:32;6.20;;;1.97;;
4806;SDS011;2417;52.482;13.432;2023-09-19T14:41:01;8.57;;;2.07;;
4806;SDS011;2417;52.482;13.432;2023-09-19T14:43:29;7.67;;;1.90;;
4806;SDS011;2417;52.482;13.432;2023-09-19T14:46:03;8.03;;;2.30;;
4806;SDS011;2417;52.482;13.432;2023-09-19T14:48:34;6.17;;;2.37;;
4806;SDS011;2417;52.482;13.432;2023-09-19T14:51:02;6.00;;;2.00;;
4806;SDS011;2417;52.482;13.432;2023-09-19T14:53:30;7.83;;;2.63;;
4806;SDS011;2417;52.482;13.432;2023-09-19T14:55:59;9.43;;;2.50;;
4806;SDS011;2417;52.482;13.432;2023-09-19T14:58:29;5.93;;;3.10;;
4806;SDS011;2417;52.482;13.432;2023-09-19T15:01:20;7.87;;;2.77;;
4806;SDS011;2417;52.482;13.432;2023-09-19T15:03:48;6.67;;;2.30;;
4806;SDS011;2417;52.482;13.432;2023-09-19T15:06:17;10.57;;;2.90;;
4806;SDS011;2417;52.482;13.432;2023-09-19T15:08:46;13.63;;;3.63;;
4806;SDS011;2417;52.482;13.432;2023-09-19T15:11:15;9.30;;;2.80;;
4806;SDS011;2417;52.482;13.432;2023-09-19T15:13:45;7.67;;;2.60;;
4806;SDS011;2417;52.482;13.432;2023-09-19T15:16:13;11.97;;;2.70;;
4806;SDS011;2417;52.482;13.432;2023-09-19T15:18:44;5.60;;;2.37;;
4806;SDS011;2417;52.482;13.432;2023-09-19T15:21:14;7.60;;;2.50;;
4806;SDS011;2417;52.482;13.432;2023-09-19T15:23:42;5.30;;;2.40;;
4806;SDS011;2417;52.482;13.432;2023-09-19T15:26:11;5.70;;;1.97;;
4806;SDS011;2417;52.482;13.432;2023-09-19T15:28:39;8.93;;;3.63;;
4806;SDS011;2417;52.482;13.432;2023-09-19T15:31:08;8.33;;;3.03;;